Time;durP1;ratioP1;P1;durP2;ratioP2;P2;SDS_P1;SDS_P2;PMS_P1;PMS_P2;Temp;Humidity;BMP_temperature;BMP_pressure;BME280_temperature;BME280_humidity;BME280_pressure;Samples;Min_cycle;Max_cycle;Signal;HPM_P1;HPM_P2
2021/06/22 00:00:08;;;;;;;13.35;12.07;;;;;;;17.72;74.68;93273.34;5091722;28;20181;-46
2021/06/22 00:02:33;;;;;;;13.52;12.00;;;;;;;17.60;74.47;93253.78;5104565;28;20508;-47
2021/06/22 00:04:59;;;;;;;12.82;11.77;;;;;;;17.73;74.48;93272.03;5112068;28;20015;-46
2021/06/22 00:07:24;;;;;;;11.45;10.38;;;;;;;17.73;74.04;93283.94;5111732;28;20034;-46
2021/06/22 00:09:50;;;;;;;10.45;9.45;;;;;;;17.64;74.29;93286.78;5111460;28;20019;-46
2021/06/22 00:12:15;;;;;;;11.35;10.57;;;;;;;17.56;74.55;93275.84;5111463;28;20069;-48
2021/06/22 00:14:41;;;;;;;10.85;10.23;;;;;;;17.58;75.06;93278.78;5111375;28;20024;-47
2021/06/22 00:17:06;;;;;;;14.15;13.25;;;;;;;17.43;76.17;93273.56;5111722;28;20016;-46
2021/06/22 00:19:32;;;;;;;15.13;13.93;;;;;;;17.61;75.76;93288.72;5111621;28;20903;-44
2021/06/22 00:21:57;;;;;;;14.25;13.35;;;;;;;17.72;75.76;93290.09;5111623;28;20023;-44
2021/06/22 00:24:23;;;;;;;13.50;12.40;;;;;;;17.79;75.34;93311.53;5111324;28;20111;-46
2021/06/22 00:26:48;;;;;;;11.43;10.52;;;;;;;17.87;74.83;93312.03;5110033;28;20030;-44
2021/06/22 00:29:16;;;;;;;11.63;10.75;;;;;;;17.89;74.76;93315.69;5111463;28;20070;-44
2021/06/22 00:31:41;;;;;;;16.13;14.50;;;;;;;17.78;75.90;93298.91;5110660;28;20030;-44
2021/06/22 00:34:06;;;;;;;17.85;16.33;;;;;;;17.69;76.70;93288.53;5110853;28;20024;-45
2021/06/22 00:36:32;;;;;;;24.45;20.77;;;;;;;17.79;76.30;93286.38;5111429;28;20042;-42
2021/06/22 00:38:57;;;;;;;13.73;12.80;;;;;;;17.82;75.79;93277.53;5111027;28;20046;-44
2021/06/22 00:41:23;;;;;;;13.13;12.02;;;;;;;17.77;75.26;93278.63;5110960;28;20549;-43
2021/06/22 00:43:48;;;;;;;11.70;10.82;;;;;;;17.72;75.34;93262.91;5111116;28;20068;-45
2021/06/22 00:46:14;;;;;;;14.52;13.20;;;;;;;17.55;75.87;93260.41;5111193;28;20088;-43
2021/06/22 00:48:39;;;;;;;15.93;14.18;;;;;;;17.61;76.21;93246.09;5110928;28;20071;-42
2021/06/22 00:51:05;;;;;;;12.73;11.82;;;;;;;17.70;75.83;93243.25;5111093;28;20384;-45
2021/06/22 00:53:30;;;;;;;14.60;13.30;;;;;;;17.65;75.68;93243.59;5110363;28;20038;-44
2021/06/22 00:55:57;;;;;;;15.20;14.00;;;;;;;17.66;75.71;93251.38;5109395;28;20028;-43
2021/06/22 00:58:23;;;;;;;15.90;14.80;;;;;;;17.57;76.33;93265.41;5110576;28;20034;-43
2021/06/22 01:00:48;;;;;;;14.90;13.80;;;;;;;17.65;75.84;93261.06;5110039;28;20047;-44
2021/06/22 01:03:14;;;;;;;15.00;13.80;;;;;;;17.63;76.27;93268.59;5110142;28;20497;-43
2021/06/22 01:05:39;;;;;;;15.80;14.60;;;;;;;17.58;76.21;93269.66;5110427;28;20020;-44
2021/06/22 01:08:05;;;;;;;27.70;26.13;;;;;;;17.67;76.43;93272.34;5110746;28;20023;-48
2021/06/22 01:10:30;;;;;;;22.60;20.70;;;;;;;17.71;76.94;93253.09;5110626;28;20026;-46
2021/06/22 01:12:56;;;;;;;22.48;20.77;;;;;;;17.70;77.88;93262.06;5110470;28;20203;-44
2021/06/22 01:15:25;;;;;;;21.50;19.52;;;;;;;17.62;78.68;93262.28;5110238;28;20027;-44
2021/06/22 01:17:55;;;;;;;21.00;19.55;;;;;;;17.65;78.57;93275.03;5110675;28;20055;-44
2021/06/22 01:20:22;;;;;;;20.27;18.67;;;;;;;17.73;77.34;93308.34;5111040;28;20034;-44
2021/06/22 01:22:48;;;;;;;21.95;20.05;;;;;;;17.72;77.23;93298.47;5110268;28;20058;-43
2021/06/22 01:25:15;;;;;;;23.30;21.52;;;;;;;17.71;78.18;93253.09;5110240;28;20030;-44
2021/06/22 01:27:41;;;;;;;23.13;21.45;;;;;;;17.66;79.61;93245.03;5103172;28;20429;-44
2021/06/22 01:30:07;;;;;;;26.67;24.63;;;;;;;17.65;80.77;93241.53;5088696;28;20016;-45
2021/06/22 01:32:33;;;;;;;34.28;31.60;;;;;;;17.54;81.84;93247.81;5102667;28;20031;-45
2021/06/22 01:34:59;;;;;;;35.05;32.60;;;;;;;17.50;82.89;93255.16;5108863;28;20062;-46
2021/06/22 01:37:24;;;;;;;33.50;30.48;;;;;;;17.51;82.52;93253.84;5109301;28;20051;-45
2021/06/22 01:39:51;;;;;;;32.50;30.25;;;;;;;17.52;82.00;93250.44;5109188;28;20102;-43
2021/06/22 01:42:16;;;;;;;28.85;26.40;;;;;;;17.54;81.61;93256.19;5108917;28;20030;-44
2021/06/22 01:44:46;;;;;;;31.65;28.80;;;;;;;17.58;81.46;93250.13;5109112;28;20019;-43
2021/06/22 01:47:12;;;;;;;29.35;26.83;;;;;;;17.55;81.24;93245.72;5109228;28;20024;-43
2021/06/22 01:49:37;;;;;;;29.00;26.90;;;;;;;17.30;81.82;93212.69;5109258;28;20131;-43
2021/06/22 01:52:03;;;;;;;29.75;27.23;;;;;;;17.55;82.13;93243.66;5109584;28;20035;-44
2021/06/22 01:54:29;;;;;;;33.83;31.80;;;;;;;17.61;82.17;93237.72;5098088;28;20032;-45
2021/06/22 01:56:54;;;;;;;33.63;31.65;;;;;;;17.51;82.25;93248.25;5095386;28;20110;-43
2021/06/22 01:59:20;;;;;;;28.88;26.67;;;;;;;17.42;82.28;93221.84;5109297;28;20035;-44
2021/06/22 02:01:45;;;;;;;26.00;24.20;;;;;;;17.59;81.94;93223.66;5109192;28;20055;-45
2021/06/22 02:04:11;;;;;;;29.55;27.65;;;;;;;17.70;81.88;93232.06;5108725;28;20027;-46
2021/06/22 02:06:38;;;;;;;25.95;23.90;;;;;;;17.75;81.29;93236.59;5108436;28;20020;-44
2021/06/22 02:09:03;;;;;;;20.85;18.95;;;;;;;17.76;80.26;93231.75;5109337;28;20035;-44
2021/06/22 02:11:29;;;;;;;21.83;20.02;;;;;;;17.74;79.97;93229.53;5109337;28;20165;-44
2021/06/22 02:13:54;;;;;;;29.23;26.98;;;;;;;17.72;81.49;93237.06;5113650;28;20027;-45
2021/06/22 02:16:20;;;;;;;26.25;24.13;;;;;;;17.67;82.08;93240.94;5113220;28;20019;-44
2021/06/22 02:18:45;;;;;;;26.67;24.70;;;;;;;17.69;81.31;93246.66;5113387;28;20028;-44
2021/06/22 02:21:11;;;;;;;25.40;22.92;;;;;;;17.65;81.12;93232.44;5113158;28;20020;-46
2021/06/22 02:23:37;;;;;;;28.33;26.52;;;;;;;17.66;81.05;93215.06;5112841;28;20107;-44
2021/06/22 02:26:04;;;;;;;27.70;25.75;;;;;;;17.58;81.64;93214.56;5112860;28;20035;-46
2021/06/22 02:28:30;;;;;;;26.33;24.65;;;;;;;17.67;82.10;93226.97;5112799;28;20455;-46
2021/06/22 02:30:57;;;;;;;24.13;21.73;;;;;;;17.65;81.43;93221.97;5112764;27;20020;-45
2021/06/22 02:33:24;;;;;;;21.40;19.90;;;;;;;17.67;80.64;93215.81;5113021;28;20038;-45
2021/06/22 02:35:49;;;;;;;23.13;21.33;;;;;;;17.59;81.19;93210.41;5112624;28;20084;-46
2021/06/22 02:38:16;;;;;;;27.23;25.42;;;;;;;17.56;81.82;93217.22;5112723;28;20023;-46
2021/06/22 02:40:41;;;;;;;24.92;23.13;;;;;;;17.58;81.87;93213.81;5112329;28;20507;-48
2021/06/22 02:43:07;;;;;;;18.77;17.30;;;;;;;17.60;80.70;93219.53;5112723;27;20023;-47
2021/06/22 02:45:34;;;;;;;19.20;17.75;;;;;;;17.58;80.35;93214.56;5112509;28;20559;-47
2021/06/22 02:48:00;;;;;;;18.92;17.33;;;;;;;17.46;80.73;93222.09;5095325;28;20039;-43
2021/06/22 02:50:26;;;;;;;17.48;15.88;;;;;;;17.44;80.07;93225.50;5091958;28;20044;-44
2021/06/22 02:52:52;;;;;;;19.15;17.55;;;;;;;17.42;79.93;93228.16;5091921;28;20031;-45
2021/06/22 02:55:18;;;;;;;19.02;17.63;;;;;;;17.37;80.40;93237.59;5109510;28;20031;-47
2021/06/22 02:57:54;;;;;;;18.95;17.30;;;;;;;17.39;79.86;93234.94;5112755;28;20027;-45
2021/06/22 03:00:26;;;;;;;19.00;17.50;;;;;;;17.31;80.06;93234.41;5112059;28;20026;-44
2021/06/22 03:02:52;;;;;;;19.80;17.35;;;;;;;17.41;79.57;93223.19;5112279;28;20145;-46
2021/06/22 03:05:18;;;;;;;19.42;17.80;;;;;;;17.19;80.34;93222.47;5112654;28;20145;-45
2021/06/22 03:07:44;;;;;;;21.20;19.50;;;;;;;17.10;80.24;93225.31;5113094;28;20131;-45
2021/06/22 03:10:11;;;;;;;18.05;16.83;;;;;;;17.14;80.20;93231.16;5113006;28;20102;-46
2021/06/22 03:12:37;;;;;;;17.80;16.42;;;;;;;17.14;80.34;93234.69;5112656;28;20023;-48
2021/06/22 03:15:04;;;;;;;19.00;17.35;;;;;;;17.07;81.04;93216.06;5112819;28;20031;-47
2021/06/22 03:17:29;;;;;;;17.15;15.82;;;;;;;17.25;80.47;93224.91;5112719;28;20054;-46
2021/06/22 03:19:55;;;;;;;18.20;16.88;;;;;;;17.29;80.05;93222.38;5109177;28;20402;-44
2021/06/22 03:22:20;;;;;;;18.90;17.13;;;;;;;17.12;80.35;93233.81;5091958;28;20680;-46
2021/06/22 03:24:46;;;;;;;18.33;16.83;;;;;;;16.97;80.47;93217.47;5091526;28;20024;-44
2021/06/22 03:27:11;;;;;;;22.38;20.42;;;;;;;17.17;80.73;93243.91;5091981;28;20019;-45
2021/06/22 03:29:37;;;;;;;19.95;18.40;;;;;;;17.24;80.51;93240.19;5092407;28;20095;-47
2021/06/22 03:32:03;;;;;;;20.83;19.27;;;;;;;17.30;80.35;93240.59;5092236;28;20016;-46
2021/06/22 03:34:29;;;;;;;21.33;19.42;;;;;;;17.37;80.19;93245.22;5092153;28;20182;-45
2021/06/22 03:36:54;;;;;;;26.55;24.33;;;;;;;17.25;81.39;93238.88;5092184;28;20020;-44
2021/06/22 03:39:19;;;;;;;25.42;23.52;;;;;;;17.33;81.49;93240.13;5092036;28;20016;-44
2021/06/22 03:41:45;;;;;;;25.73;23.98;;;;;;;17.41;81.68;93248.31;5092123;28;20471;-45
2021/06/22 03:44:10;;;;;;;24.33;22.23;;;;;;;17.33;81.81;93233.81;5091997;28;20027;-45
2021/06/22 03:46:36;;;;;;;22.58;20.80;;;;;;;17.47;81.09;93248.69;5097448;28;20059;-47
2021/06/22 03:49:01;;;;;;;23.27;21.58;;;;;;;17.42;81.37;93255.34;5111811;28;20036;-45
2021/06/22 03:51:27;;;;;;;24.25;22.33;;;;;;;17.39;81.54;93256.53;5111001;28;20012;-43
2021/06/22 03:53:52;;;;;;;23.02;21.05;;;;;;;17.51;81.38;93249.00;5111862;28;20069;-43
2021/06/22 03:56:18;;;;;;;23.10;21.38;;;;;;;17.54;81.36;93252.66;5111916;28;20042;-43
2021/06/22 03:58:43;;;;;;;22.33;20.73;;;;;;;17.51;81.29;93245.47;5111850;28;20087;-44
2021/06/22 04:01:09;;;;;;;20.20;18.70;;;;;;;17.53;81.13;93240.75;5111875;28;20062;-45
2021/06/22 04:03:35;;;;;;;21.80;20.17;;;;;;;17.54;81.15;93245.00;5111978;28;20023;-45
2021/06/22 04:06:00;;;;;;;22.90;21.10;;;;;;;17.62;81.01;93251.13;5111877;28;20047;-43
2021/06/22 04:08:26;;;;;;;21.70;19.80;;;;;;;17.69;80.44;93249.44;5110615;28;20034;-45
2021/06/22 04:10:52;;;;;;;22.38;20.88;;;;;;;17.70;80.68;93242.50;5110161;28;20019;-44
2021/06/22 04:13:17;;;;;;;22.83;21.20;;;;;;;17.64;81.26;93233.75;5110431;28;20027;-44
2021/06/22 04:15:43;;;;;;;22.17;20.77;;;;;;;17.70;81.50;93245.31;5109977;28;20105;-43
2021/06/22 04:18:09;;;;;;;22.67;21.10;;;;;;;17.78;81.46;93251.44;5089565;28;20028;-43
2021/06/22 04:20:35;;;;;;;21.98;20.52;;;;;;;17.80;81.74;93252.25;5088666;28;20032;-46
2021/06/22 04:23:01;;;;;;;22.98;21.60;;;;;;;17.95;81.37;93257.41;5089104;28;20027;-45
2021/06/22 04:25:27;;;;;;;22.13;20.77;;;;;;;17.99;81.27;93268.88;5090270;28;20027;-45
2021/06/22 04:27:52;;;;;;;24.02;22.70;;;;;;;18.00;81.87;93266.78;5091319;28;20024;-46
2021/06/22 04:30:19;;;;;;;25.90;24.23;;;;;;;18.08;81.89;93264.53;5091177;28;20020;-46
2021/06/22 04:32:44;;;;;;;23.77;22.35;;;;;;;18.01;82.14;93254.28;5091238;28;20028;-47
2021/06/22 04:35:10;;;;;;;23.23;21.75;;;;;;;18.05;82.56;93255.28;5090609;28;20432;-44
2021/06/22 04:37:36;;;;;;;24.80;23.25;;;;;;;18.14;82.38;93257.25;5091029;28;20024;-44
2021/06/22 04:40:02;;;;;;;26.85;25.20;;;;;;;18.26;82.77;93264.94;5090793;28;20092;-46
2021/06/22 04:42:28;;;;;;;25.67;23.98;;;;;;;18.29;82.59;93260.94;5090650;28;20136;-44
2021/06/22 04:44:53;;;;;;;25.63;24.13;;;;;;;18.26;83.48;93265.66;5091055;28;20024;-43
2021/06/22 04:47:19;;;;;;;24.70;23.00;;;;;;;18.27;82.45;93264.34;5102145;28;20020;-45
2021/06/22 04:49:45;;;;;;;26.08;23.88;;;;;;;18.26;82.63;93259.34;5110629;28;20241;-45
2021/06/22 04:52:11;;;;;;;22.33;20.75;;;;;;;18.28;82.20;93257.41;5110768;28;20034;-44
2021/06/22 04:54:38;;;;;;;24.55;22.80;;;;;;;18.31;82.41;93253.41;5110441;28;20412;-46
2021/06/22 04:57:05;;;;;;;22.40;20.85;;;;;;;18.40;82.73;93260.22;5110646;28;20507;-44
2021/06/22 04:59:34;;;;;;;23.17;21.48;;;;;;;18.42;82.83;93254.75;5110316;28;20024;-45
2021/06/22 05:02:00;;;;;;;23.27;21.77;;;;;;;18.47;82.58;93262.09;5110427;28;20023;-43
2021/06/22 05:04:25;;;;;;;26.25;24.55;;;;;;;18.50;82.85;93253.22;5110173;28;20385;-45
2021/06/22 05:06:51;;;;;;;27.73;25.52;;;;;;;18.58;82.61;93258.59;5110498;28;20030;-47
2021/06/22 05:09:16;;;;;;;24.92;23.05;;;;;;;18.66;82.86;93247.91;5110271;28;20024;-41
2021/06/22 05:11:41;;;;;;;23.38;21.70;;;;;;;18.69;83.04;93244.59;5109305;28;20076;-45
2021/06/22 05:14:07;;;;;;;35.95;33.53;;;;;;;18.77;83.58;93250.72;5110019;28;20081;-45
2021/06/22 05:16:32;;;;;;;33.20;31.17;;;;;;;18.83;83.97;93253.13;5110649;28;20027;-45
2021/06/22 05:18:58;;;;;;;37.17;34.03;;;;;;;18.86;84.39;93258.22;5110166;28;20023;-45
2021/06/22 05:21:23;;;;;;;30.25;28.55;;;;;;;18.98;84.82;93269.44;5110257;28;20026;-47
2021/06/22 05:23:49;;;;;;;31.30;29.23;;;;;;;19.02;84.51;93275.25;5110384;28;20031;-48
2021/06/22 05:26:14;;;;;;;28.80;26.98;;;;;;;19.12;83.85;93272.34;5109877;28;20024;-47
2021/06/22 05:28:39;;;;;;;21.83;20.45;;;;;;;19.19;82.96;93277.69;5110039;28;20015;-45
2021/06/22 05:31:05;;;;;;;16.95;15.85;;;;;;;19.21;81.90;93268.69;5110181;28;20016;-45
2021/06/22 05:33:30;;;;;;;30.50;27.58;;;;;;;19.23;82.69;93275.13;5109743;28;20127;-46
2021/06/22 05:35:56;;;;;;;30.83;29.20;;;;;;;19.33;83.80;93278.53;5109149;28;20020;-47
2021/06/22 05:38:21;;;;;;;33.40;31.42;;;;;;;19.37;83.74;93281.59;5109448;28;20023;-44
2021/06/22 05:40:47;;;;;;;25.35;23.85;;;;;;;19.46;84.55;93280.00;5110229;28;20023;-46
2021/06/22 05:43:12;;;;;;;26.38;24.75;;;;;;;19.51;84.18;93279.59;5109984;28;20023;-45
2021/06/22 05:45:38;;;;;;;20.13;18.60;;;;;;;19.61;83.28;93288.63;5109819;28;20031;-45
2021/06/22 05:48:04;;;;;;;18.65;17.45;;;;;;;19.66;82.75;93283.97;5091288;28;20031;-45
2021/06/22 05:50:29;;;;;;;17.63;16.42;;;;;;;19.73;81.62;93287.88;5089072;28;20040;-45
2021/06/22 05:52:56;;;;;;;15.52;13.80;;;;;;;19.80;80.11;93281.25;5088917;28;20063;-47
2021/06/22 05:55:21;;;;;;;16.45;15.40;;;;;;;19.79;80.42;93274.19;5106690;28;20019;-45
2021/06/22 05:57:52;;;;;;;14.35;13.35;;;;;;;19.99;77.92;93280.97;5105535;28;20036;-45
2021/06/22 06:00:20;;;;;;;19.85;18.55;;;;;;;20.05;80.50;93284.09;5104372;28;20024;-46
2021/06/22 06:02:46;;;;;;;26.40;24.60;;;;;;;20.07;81.75;93282.13;5105276;28;20020;-46
2021/06/22 06:05:13;;;;;;;23.58;22.13;;;;;;;20.08;82.18;93289.19;5108133;28;20056;-46
2021/06/22 06:07:38;;;;;;;21.02;19.73;;;;;;;20.20;82.34;93289.91;5108684;28;20035;-47
2021/06/22 06:10:05;;;;;;;15.35;14.32;;;;;;;20.24;79.77;93286.59;5093268;28;20020;-46
2021/06/22 06:12:30;;;;;;;24.20;22.45;;;;;;;20.30;81.18;93286.94;5088175;28;20040;-46
2021/06/22 06:14:56;;;;;;;15.82;14.93;;;;;;;20.31;80.55;93280.69;5088697;28;20033;-47
2021/06/22 06:17:22;;;;;;;13.82;12.93;;;;;;;20.35;78.67;93289.34;5088282;28;20027;-45
2021/06/22 06:19:47;;;;;;;13.82;12.93;;;;;;;20.48;78.69;93296.34;5088334;28;20032;-46
2021/06/22 06:22:13;;;;;;;17.30;16.20;;;;;;;20.56;79.43;93296.06;5088283;28;20027;-47
2021/06/22 06:24:38;;;;;;;13.70;12.80;;;;;;;20.69;78.04;93304.53;5088250;28;20059;-46
2021/06/22 06:27:12;;;;;;;14.27;13.38;;;;;;;20.70;77.69;93297.56;5088385;28;20027;-47
2021/06/22 06:32:06;;;;;;;13.95;13.05;;;;;;;20.89;78.63;93299.28;5088484;28;20028;-45
2021/06/22 06:34:31;;;;;;;14.07;13.07;;;;;;;21.09;78.58;93312.31;5088339;28;20043;-45
2021/06/22 06:36:57;;;;;;;14.45;13.55;;;;;;;21.24;77.70;93299.78;5088033;28;20033;-46
2021/06/22 06:39:22;;;;;;;14.38;13.38;;;;;;;21.40;78.25;93313.91;5087711;28;20024;-45
2021/06/22 06:41:48;;;;;;;14.68;13.73;;;;;;;21.52;77.29;93306.13;5087954;28;20031;-46
2021/06/22 06:44:13;;;;;;;14.15;12.93;;;;;;;21.62;78.50;93306.63;5087490;28;20028;-44
2021/06/22 06:46:39;;;;;;;13.50;12.43;;;;;;;21.73;78.46;93314.94;5093659;28;20127;-45
2021/06/22 06:49:04;;;;;;;11.05;10.15;;;;;;;21.79;75.68;93315.25;5107881;28;20055;-44
2021/06/22 06:51:29;;;;;;;11.75;10.85;;;;;;;21.88;75.01;93316.41;5108746;28;20051;-46
2021/06/22 06:53:55;;;;;;;15.30;14.30;;;;;;;21.85;77.71;93317.69;5107722;28;20034;-43
2021/06/22 06:56:20;;;;;;;12.52;11.63;;;;;;;21.81;77.35;93320.97;5108175;28;20023;-45
2021/06/22 06:58:46;;;;;;;13.32;12.48;;;;;;;21.82;77.73;93310.47;5108878;28;20412;-45
2021/06/22 07:01:12;;;;;;;14.30;13.15;;;;;;;21.85;76.17;93314.88;5111764;28;20480;-44
2021/06/22 07:03:37;;;;;;;11.65;9.43;;;;;;;21.95;73.71;93306.94;5111992;28;20094;-44
2021/06/22 07:06:03;;;;;;;32.03;29.52;;;;;;;22.05;74.44;93313.03;5111740;28;20061;-44
2021/06/22 07:08:28;;;;;;;11.68;10.60;;;;;;;22.20;74.34;93315.19;5111605;28;20032;-45
2021/06/22 07:10:54;;;;;;;9.80;9.00;;;;;;;22.27;73.80;93308.50;5111451;28;20016;-44
2021/06/22 07:13:19;;;;;;;10.43;9.70;;;;;;;22.38;76.19;93315.34;5111241;28;20103;-45
2021/06/22 07:15:46;;;;;;;11.32;10.43;;;;;;;22.51;75.23;93304.06;5111373;28;20024;-44
2021/06/22 07:18:12;;;;;;;10.25;8.85;;;;;;;22.59;74.12;93318.53;5110806;28;20031;-45
2021/06/22 07:20:37;;;;;;;9.30;8.60;;;;;;;22.77;74.23;93320.75;5110057;28;20024;-47
2021/06/22 07:23:03;;;;;;;9.13;8.52;;;;;;;22.90;74.19;93325.59;5111142;28;20035;-45
2021/06/22 07:25:28;;;;;;;9.43;8.57;;;;;;;23.12;73.46;93318.91;5111062;28;20104;-45
2021/06/22 07:27:55;;;;;;;10.35;7.60;;;;;;;23.43;70.92;93323.09;5111553;28;20031;-46
2021/06/22 07:30:23;;;;;;;9.25;8.10;;;;;;;23.87;69.89;93331.41;5111173;28;20472;-46
2021/06/22 07:32:52;;;;;;;8.65;6.45;;;;;;;24.32;67.14;93327.66;5110989;28;20032;-45
2021/06/22 07:35:18;;;;;;;6.20;5.70;;;;;;;24.79;64.22;93323.28;5111413;28;20031;-48
2021/06/22 07:37:45;;;;;;;5.53;5.00;;;;;;;25.36;63.98;93326.16;5111710;28;20519;-46
2021/06/22 07:40:11;;;;;;;5.38;4.88;;;;;;;26.04;61.52;93330.03;5111128;28;20136;-45
2021/06/22 07:42:36;;;;;;;5.97;5.43;;;;;;;26.67;60.25;93327.94;5111218;28;20023;-45
2021/06/22 07:45:03;;;;;;;8.98;5.75;;;;;;;27.35;58.10;93320.16;5110903;28;20085;-46
2021/06/22 07:47:29;;;;;;;5.38;4.53;;;;;;;27.62;56.61;93322.41;5110705;28;20034;-47
2021/06/22 07:49:54;;;;;;;7.13;5.00;;;;;;;28.08;54.77;93326.56;5109427;28;20044;-47
2021/06/22 07:52:20;;;;;;;4.95;4.47;;;;;;;28.74;53.69;93321.19;5110429;28;20080;-47
2021/06/22 07:54:47;;;;;;;6.07;4.78;;;;;;;28.99;52.21;93317.50;5109640;28;20081;-46
2021/06/22 07:57:12;;;;;;;5.50;5.03;;;;;;;29.37;54.01;93312.72;5110826;27;20412;-47
2021/06/22 07:59:38;;;;;;;6.88;5.30;;;;;;;29.73;50.19;93322.03;5110795;28;20035;-45
2021/06/22 08:02:03;;;;;;;6.63;4.88;;;;;;;30.06;49.58;93291.41;5110523;28;20561;-49
2021/06/22 08:04:29;;;;;;;4.75;4.35;;;;;;;30.72;48.31;93321.09;5109242;28;20027;-46
2021/06/22 08:06:54;;;;;;;6.95;4.65;;;;;;;31.19;46.29;93317.59;5108977;28;20088;-47
2021/06/22 08:09:20;;;;;;;4.93;4.32;;;;;;;31.51;45.44;93313.81;5109023;28;20027;-46
2021/06/22 08:11:46;;;;;;;5.65;4.93;;;;;;;32.12;44.88;93318.88;5109059;28;20023;-46
2021/06/22 08:14:12;;;;;;;5.80;5.28;;;;;;;32.53;43.69;93315.06;5109068;28;20027;-47
2021/06/22 08:16:38;;;;;;;5.18;4.68;;;;;;;32.86;41.34;93325.38;5109614;28;20107;-46
2021/06/22 08:19:03;;;;;;;5.97;5.32;;;;;;;33.05;40.13;93320.56;5109430;28;20035;-46
2021/06/22 08:21:29;;;;;;;5.55;5.00;;;;;;;33.57;39.64;93325.94;5109729;28;20031;-46
2021/06/22 08:23:55;;;;;;;5.97;5.47;;;;;;;33.90;37.45;93318.25;5109877;28;20511;-46
2021/06/22 08:26:20;;;;;;;7.25;5.65;;;;;;;33.73;37.44;93322.47;5109419;28;20032;-47
2021/06/22 08:28:46;;;;;;;6.63;5.38;;;;;;;33.87;37.35;93328.28;5108605;28;20084;-44
2021/06/22 08:31:11;;;;;;;5.90;5.40;;;;;;;34.52;36.74;93326.44;5109201;28;20026;-47
2021/06/22 08:33:37;;;;;;;6.20;5.30;;;;;;;34.65;36.77;93330.75;5109047;28;20103;-46
2021/06/22 08:36:04;;;;;;;5.97;5.38;;;;;;;34.82;36.19;93332.22;5108728;28;20400;-46
2021/06/22 08:38:30;;;;;;;8.23;6.00;;;;;;;35.21;35.15;93330.84;5108403;28;20030;-54
2021/06/22 08:40:55;;;;;;;12.05;5.85;;;;;;;35.58;35.38;93325.78;5108260;28;20122;-45
2021/06/22 08:43:21;;;;;;;8.15;5.03;;;;;;;35.27;35.05;93330.09;5108319;28;20027;-48
2021/06/22 08:45:47;;;;;;;6.80;5.30;;;;;;;35.66;34.17;93320.75;5108249;28;20504;-45
2021/06/22 08:48:13;;;;;;;6.93;4.70;;;;;;;35.96;34.87;93322.84;5107515;28;20019;-44
2021/06/22 08:50:40;;;;;;;7.75;5.32;;;;;;;35.88;35.26;93316.38;5106987;28;20035;-45
2021/06/22 08:53:06;;;;;;;8.67;5.33;;;;;;;36.30;34.15;93322.00;5106862;28;20568;-46
2021/06/22 08:55:33;;;;;;;7.18;5.30;;;;;;;36.62;33.02;93333.38;5104956;28;20054;-46
2021/06/22 08:57:59;;;;;;;7.18;4.50;;;;;;;36.18;33.27;93328.53;5106816;28;20124;-48
2021/06/22 09:00:25;;;;;;;8.85;5.82;;;;;;;36.58;33.88;93324.75;5107086;28;20135;-48
2021/06/22 09:03:12;;;;;;;5.57;4.80;;;;;;;36.71;32.78;93331.16;5103859;28;20513;-48
2021/06/22 09:05:39;;;;;;;7.30;5.07;;;;;;;35.82;33.12;93316.41;5104918;28;20019;-47
2021/06/22 09:08:05;;;;;;;9.53;5.20;;;;;;;34.44;35.28;93324.22;5107284;28;20024;-49
2021/06/22 09:10:33;;;;;;;8.20;5.65;;;;;;;34.04;36.93;93321.94;5105041;28;20053;-49
2021/06/22 09:13:10;;;;;;;8.23;4.70;;;;;;;32.62;39.26;93322.31;5108274;28;20165;-49
2021/06/22 09:15:38;;;;;;;9.98;5.57;;;;;;;32.90;40.15;93322.56;5106368;28;20051;-46
2021/06/22 09:18:04;;;;;;;5.60;5.10;;;;;;;33.31;38.33;93308.59;5107864;28;20019;-48
2021/06/22 09:20:41;;;;;;;7.72;5.38;;;;;;;33.78;39.67;93318.94;5108003;28;20495;-54
2021/06/22 09:23:14;;;;;;;16.70;5.93;;;;;;;34.20;39.01;93327.72;5107514;28;20492;-47
2021/06/22 09:25:41;;;;;;;10.48;5.60;;;;;;;34.65;38.15;93331.47;5107943;28;20026;-48
2021/06/22 09:28:06;;;;;;;6.80;6.10;;;;;;;34.92;37.69;93326.47;5107861;28;20068;-45
2021/06/22 09:30:47;;;;;;;9.48;5.63;;;;;;;35.04;37.15;93324.34;5107607;28;20066;-47
2021/06/22 09:33:23;;;;;;;7.97;5.80;;;;;;;35.25;37.56;93327.97;5102639;28;20027;-47
2021/06/22 09:36:05;;;;;;;7.13;5.85;;;;;;;35.26;36.89;93329.38;5107743;28;20123;-47
2021/06/22 09:38:41;;;;;;;10.32;7.70;;;;;;;35.59;35.92;93327.94;5107765;28;20114;-47
2021/06/22 09:41:40;;;;;;;11.05;6.13;;;;;;;35.53;36.10;93330.81;5107192;28;20015;-47
2021/06/22 09:44:16;;;;;;;17.73;8.18;;;;;;;35.31;37.25;93330.81;5061044;28;20511;-49
2021/06/22 09:46:53;;;;;;;13.98;7.53;;;;;;;35.02;37.65;93329.41;5107429;28;20019;-47
2021/06/22 09:49:26;;;;;;;8.38;6.07;;;;;;;34.88;37.55;93323.59;5105408;28;20047;-48
2021/06/22 09:51:58;;;;;;;13.63;8.95;;;;;;;34.77;38.39;93325.75;5105054;28;20082;-47
2021/06/22 09:54:25;;;;;;;8.68;6.55;;;;;;;34.86;37.50;93332.94;5106991;28;20023;-48
2021/06/22 09:57:12;;;;;;;11.02;6.55;;;;;;;35.24;37.43;93328.69;5104617;28;20024;-44
2021/06/22 10:00:05;;;;;;;11.65;6.57;;;;;;;35.22;37.37;93335.13;5106829;28;20044;-47
2021/06/22 10:02:47;;;;;;;9.77;6.25;;;;;;;35.64;36.30;93331.53;5107233;28;20026;-50
2021/06/22 10:05:15;;;;;;;10.82;7.55;;;;;;;35.76;36.35;93328.63;5102873;28;20019;-46
2021/06/22 10:07:41;;;;;;;11.48;6.57;;;;;;;35.89;36.45;93335.06;5107862;28;20396;-47
2021/06/22 10:10:07;;;;;;;15.23;6.63;;;;;;;35.98;35.44;93319.97;5107082;28;20031;-47
2021/06/22 10:12:34;;;;;;;7.82;5.57;;;;;;;35.89;35.69;93329.31;5107377;28;20103;-48
2021/06/22 10:15:02;;;;;;;11.10;6.10;;;;;;;35.65;34.91;93330.78;5105846;28;20039;-46
2021/06/22 10:17:31;;;;;;;18.83;7.05;;;;;;;35.69;35.70;93339.41;5107020;28;20024;-46
2021/06/22 10:19:58;;;;;;;11.52;6.43;;;;;;;35.82;35.36;93322.16;5106877;28;20048;-48
2021/06/22 10:22:27;;;;;;;9.65;5.18;;;;;;;35.75;34.01;93327.19;5107225;28;20049;-52
2021/06/22 10:24:56;;;;;;;7.88;6.18;;;;;;;34.90;37.55;93317.88;5104812;28;20035;-52
2021/06/22 10:27:21;;;;;;;13.25;6.40;;;;;;;35.13;37.17;93327.25;5107178;28;20023;-50
2021/06/22 10:29:50;;;;;;;12.43;7.05;;;;;;;34.90;37.14;93329.34;5107232;28;20061;-46
2021/06/22 10:32:16;;;;;;;12.93;6.90;;;;;;;35.00;36.08;93324.34;5104101;28;20491;-47
2021/06/22 10:34:48;;;;;;;14.38;6.18;;;;;;;34.43;36.29;93322.06;5108731;28;20039;-49
2021/06/22 10:37:15;;;;;;;13.77;6.80;;;;;;;34.41;37.98;93313.47;5110887;28;20383;-47
2021/06/22 10:39:47;;;;;;;17.37;6.90;;;;;;;34.45;37.96;93319.19;5111102;28;20098;-45
2021/06/22 10:42:13;;;;;;;10.48;6.28;;;;;;;34.44;39.03;93315.63;5107866;28;20556;-47
2021/06/22 10:44:39;;;;;;;17.25;6.50;;;;;;;34.60;38.45;93312.81;5110147;28;20088;-47
2021/06/22 10:47:22;;;;;;;14.48;6.05;;;;;;;34.78;37.34;93315.00;5109826;27;21333;-48
2021/06/22 10:50:10;;;;;;;11.75;7.10;;;;;;;34.71;36.80;93311.41;5110069;28;20127;-49
2021/06/22 10:52:41;;;;;;;11.00;6.70;;;;;;;34.31;38.60;93309.13;5110568;28;20035;-47
2021/06/22 10:55:18;;;;;;;14.77;6.80;;;;;;;34.12;38.08;93316.25;5108739;28;20414;-46
2021/06/22 10:58:01;;;;;;;19.95;7.55;;;;;;;34.07;36.70;93317.66;5110977;28;20161;-45
2021/06/22 11:00:29;;;;;;;19.73;6.72;;;;;;;33.78;35.33;93312.47;5108530;28;20031;-45
2021/06/22 11:03:02;;;;;;;18.55;6.30;;;;;;;33.38;36.13;93305.06;5110846;28;20523;-50
2021/06/22 11:05:29;;;;;;;17.80;6.20;;;;;;;33.52;34.79;93307.34;5103082;28;20043;-46
2021/06/22 11:08:31;;;;;;;24.92;7.80;;;;;;;33.45;37.08;93309.41;5111188;28;20073;-51
2021/06/22 11:10:56;;;;;;;17.08;7.10;;;;;;;33.42;36.89;93315.81;5111435;28;20393;-47
2021/06/22 11:13:44;;;;;;;19.15;7.65;;;;;;;33.28;37.87;93318.59;5111484;28;20031;-48
2021/06/22 11:16:18;;;;;;;19.85;5.97;;;;;;;33.21;36.58;93319.97;5110075;27;20637;-48
2021/06/22 11:21:46;;;;;;;22.63;6.20;;;;;;;33.12;37.35;93313.47;5110438;28;20043;-49
2021/06/22 11:24:14;;;;;;;17.02;5.80;;;;;;;32.74;38.31;93316.00;5109800;28;20129;-45
2021/06/22 11:26:46;;;;;;;13.98;6.13;;;;;;;32.62;39.33;93318.72;5110164;28;20452;-47